createdAt,value
2024-01-18T00:03:40.698Z,52.70
2024-01-18T00:08:43.109Z,61.22
2024-01-18T00:13:45.639Z,54.10
2024-01-18T00:18:49.568Z,55.07
2024-01-18T00:23:51.810Z,55.85
2024-01-18T00:28:54.150Z,58.08
2024-01-18T00:33:59.747Z,51.13
2024-01-18T00:39:08.758Z,54.60
2024-01-18T00:44:16.296Z,46.53
2024-01-18T00:49:19.511Z,52.17
2024-01-18T00:54:25.164Z,57.40
2024-01-18T00:59:39.211Z,52.97
2024-01-18T01:04:41.439Z,57.00
2024-01-18T01:09:43.674Z,59.63
2024-01-18T01:31:14.591Z,55.33
2024-01-18T01:36:16.836Z,51.43
2024-01-18T01:41:19.174Z,52.80
2024-01-18T01:46:21.459Z,57.55
2024-01-18T01:51:24.555Z,50.53
2024-01-18T01:56:27.385Z,50.53
2024-01-18T02:01:33.232Z,53.40
2024-01-18T02:06:39.395Z,55.15
2024-01-18T02:11:42.147Z,57.60
2024-01-18T02:16:44.853Z,55.92
2024-01-18T02:21:47.464Z,54.85
2024-01-18T02:26:56.922Z,57.90
2024-01-18T02:31:59.127Z,49.88
2024-01-18T02:37:01.267Z,52.40
2024-01-18T02:42:04.061Z,56.80
2024-01-18T02:47:06.455Z,53.25
2024-01-18T02:52:08.672Z,49.27
2024-01-18T02:57:11.163Z,49.25
2024-01-18T03:02:13.414Z,48.78
2024-01-18T03:07:15.715Z,50.65
2024-01-18T03:12:18.289Z,50.83
2024-01-18T03:17:20.522Z,37.50
2024-01-18T03:22:22.692Z,48.80
2024-01-18T03:27:24.939Z,31.58
2024-01-18T03:32:27.162Z,37.15
2024-01-18T03:37:29.655Z,33.33
2024-01-18T03:42:34.146Z,35.17
2024-01-18T03:47:36.710Z,26.50
2024-01-18T03:52:38.913Z,28.75
2024-01-18T03:57:41.544Z,25.62
2024-01-18T04:02:44.422Z,28.73
2024-01-18T04:07:46.670Z,28.03
2024-01-18T04:12:49.140Z,24.05
2024-01-18T04:17:51.442Z,26.33
2024-01-18T04:22:54.594Z,23.00
2024-01-18T04:27:57.245Z,25.40
2024-01-18T04:32:59.517Z,26.13
2024-01-18T04:38:02.138Z,19.17
2024-01-18T04:43:04.497Z,24.58
2024-01-18T04:48:07.132Z,22.85
2024-01-18T04:53:10.342Z,28.65
2024-01-18T04:58:12.954Z,27.57
2024-01-18T05:03:15.137Z,24.27
2024-01-18T05:08:17.372Z,25.35
2024-01-18T05:13:19.621Z,27.42
2024-01-18T05:18:21.863Z,27.10
2024-01-18T05:23:24.259Z,27.40
2024-01-18T05:28:26.390Z,27.65
2024-01-18T05:33:28.727Z,22.73
2024-01-18T05:38:39.320Z,25.73
2024-01-18T05:43:43.937Z,28.38
2024-01-18T05:48:46.190Z,27.23
2024-01-18T05:53:48.379Z,29.05
2024-01-18T05:58:50.844Z,27.65
2024-01-18T06:03:53.093Z,26.37
2024-01-18T06:08:57.062Z,24.42
2024-01-18T06:13:59.389Z,27.00
2024-01-18T06:19:01.754Z,25.95
2024-01-18T06:24:04.333Z,26.85
2024-01-18T06:29:07.642Z,25.65
2024-01-18T06:34:11.372Z,40.55
2024-01-18T06:39:15.217Z,43.17
2024-01-18T06:44:17.354Z,41.55
2024-01-18T06:49:19.708Z,47.92
2024-01-18T06:54:23.346Z,42.58
2024-01-18T06:59:26.540Z,45.72
2024-01-18T07:04:28.824Z,45.20
2024-01-18T07:09:32.772Z,48.25
2024-01-18T07:14:35.221Z,46.70
2024-01-18T07:19:40.460Z,50.12
2024-01-18T07:24:42.989Z,46.45
2024-01-18T07:29:45.503Z,51.10
2024-01-18T07:34:47.741Z,52.67
2024-01-18T07:39:51.615Z,56.45
2024-01-18T07:44:53.811Z,54.78
2024-01-18T07:49:55.999Z,51.25
2024-01-18T07:54:58.369Z,54.07
2024-01-18T08:00:00.747Z,47.38
2024-01-18T08:05:03.078Z,51.15
2024-01-18T08:10:07.388Z,49.83
2024-01-18T08:15:10.245Z,49.03
2024-01-18T08:20:16.177Z,47.47
2024-01-18T08:25:18.492Z,52.55
2024-01-18T08:30:21.301Z,53.45
2024-01-18T08:35:23.489Z,64.20
2024-01-18T08:40:25.729Z,53.87
2024-01-18T08:45:28.381Z,58.20
2024-01-18T08:50:30.573Z,59.58
2024-01-18T08:55:32.894Z,52.47
2024-01-18T09:00:35.653Z,54.58
2024-01-18T09:05:37.956Z,53.47
2024-01-18T09:10:40.128Z,53.20
2024-01-18T09:15:42.856Z,50.40
2024-01-18T09:20:47.968Z,50.45
2024-01-18T09:25:50.276Z,50.67
2024-01-18T09:30:52.493Z,50.35
2024-01-18T09:35:55.228Z,49.70
2024-01-18T09:41:07.691Z,51.85
2024-01-18T09:46:12.967Z,46.22
2024-01-18T09:51:16.283Z,52.80
2024-01-18T09:56:29.615Z,45.85
2024-01-18T10:01:33.069Z,44.97
2024-01-18T10:06:36.968Z,49.80
2024-01-18T10:11:40.096Z,46.33
2024-01-18T10:16:43.449Z,47.22
2024-01-18T10:21:47.870Z,44.90
2024-01-18T10:27:03.386Z,47.20
2024-01-18T10:32:08.213Z,45.20
2024-01-18T10:37:16.749Z,48.22
2024-01-18T10:42:19.467Z,45.85
2024-01-18T10:47:24.229Z,44.13
2024-01-18T10:52:27.179Z,47.13
2024-01-18T10:57:29.439Z,42.13
2024-01-18T11:02:32.416Z,43.50
2024-01-18T11:07:34.920Z,44.42
2024-01-18T11:12:51.046Z,45.22
2024-01-18T11:17:53.517Z,44.60
2024-01-18T11:22:59.915Z,41.30
2024-01-18T11:28:02.762Z,41.15
2024-01-18T11:33:08.540Z,40.67
2024-01-18T11:38:27.341Z,39.30
2024-01-18T11:44:02.632Z,35.13
2024-01-18T11:49:05.429Z,40.53
2024-01-18T11:54:10.100Z,33.17
2024-01-18T11:59:12.356Z,32.33
2024-01-18T12:04:14.549Z,29.80
2024-01-18T12:09:16.955Z,33.03
2024-01-18T12:14:19.170Z,29.73
2024-01-18T12:19:35.232Z,33.33
2024-01-18T12:24:38.546Z,33.75
2024-01-18T12:29:41.822Z,33.38
2024-01-18T12:34:44.203Z,32.57
2024-01-18T12:39:46.737Z,35.20
2024-01-18T12:44:53.683Z,32.40
2024-01-18T12:49:56.512Z,31.40
2024-01-18T12:55:00.800Z,30.27
2024-01-18T13:00:06.813Z,29.30
2024-01-18T13:05:15.360Z,27.13
2024-01-18T13:10:17.671Z,26.83
2024-01-18T13:15:19.902Z,25.35
2024-01-18T13:20:25.185Z,24.65
2024-01-18T13:25:27.330Z,25.87
2024-01-18T13:30:29.564Z,24.33
2024-01-18T13:35:31.798Z,25.02
2024-01-18T13:40:33.969Z,22.15
2024-01-18T13:45:36.200Z,23.30
2024-01-18T13:50:38.477Z,23.97
2024-01-18T13:55:40.856Z,22.37
2024-01-18T14:00:44.695Z,23.02
2024-01-18T14:05:48.559Z,22.60
2024-01-18T14:10:50.895Z,21.45
2024-01-18T14:15:53.233Z,21.43
2024-01-18T14:20:56.205Z,19.37
2024-01-18T14:25:58.790Z,20.12
2024-01-18T14:31:02.358Z,18.92
2024-01-18T14:36:05.634Z,19.90
2024-01-18T14:41:07.778Z,21.27
2024-01-18T14:46:09.935Z,19.73
2024-01-18T14:51:12.259Z,19.65
2024-01-18T14:56:14.427Z,20.50
2024-01-18T15:01:17.624Z,20.60
2024-01-18T15:06:20.000Z,19.70
2024-01-18T15:11:22.196Z,22.35
2024-01-18T15:16:24.498Z,21.85
2024-01-18T15:21:27.102Z,22.90
2024-01-18T15:26:29.207Z,21.27
2024-01-18T15:31:32.847Z,23.13
2024-01-18T15:36:39.778Z,22.98
2024-01-18T15:41:46.106Z,23.65
2024-01-18T15:46:55.841Z,24.00
2024-01-18T15:51:58.323Z,24.08
2024-01-18T15:57:00.582Z,25.37
2024-01-18T16:02:04.083Z,28.80
2024-01-18T16:07:06.538Z,31.00
2024-01-18T16:12:09.813Z,29.08
2024-01-18T16:17:12.097Z,27.30
2024-01-18T16:22:14.283Z,27.70
2024-01-18T16:27:16.715Z,23.08
2024-01-18T16:32:19.990Z,24.08
2024-01-18T16:37:22.327Z,23.20
2024-01-18T16:42:24.495Z,21.55
2024-01-18T16:47:26.717Z,21.90
2024-01-18T16:52:29.000Z,26.12
2024-01-18T16:57:33.413Z,24.90
2024-01-18T17:02:39.290Z,25.55
2024-01-18T17:07:41.528Z,22.13
2024-01-18T17:12:43.683Z,25.23
2024-01-18T17:17:45.967Z,28.98
2024-01-18T17:22:48.228Z,31.12
2024-01-18T17:27:50.375Z,33.90
2024-01-18T17:32:55.234Z,28.40
2024-01-18T17:37:57.531Z,30.60
2024-01-18T17:42:59.764Z,31.48
2024-01-18T17:48:03.436Z,32.80
2024-01-18T17:53:06.215Z,35.83
2024-01-18T17:58:08.543Z,40.60
2024-01-18T18:03:12.011Z,58.33
2024-01-18T18:08:14.288Z,31.85
2024-01-18T18:13:16.575Z,31.37
2024-01-18T18:18:20.363Z,28.35
2024-01-18T18:23:22.945Z,42.95
2024-01-18T18:28:25.140Z,45.87
2024-01-18T18:33:27.656Z,33.13
2024-01-18T18:38:33.203Z,26.80
2024-01-18T18:43:42.232Z,27.42
2024-01-18T18:48:44.402Z,32.50
2024-01-18T18:53:46.674Z,32.67
2024-01-18T18:58:48.930Z,38.50
2024-01-18T19:03:51.128Z,36.42
2024-01-18T19:08:53.383Z,40.20
2024-01-18T19:13:56.895Z,36.90
2024-01-18T19:18:59.580Z,40.13
2024-01-18T19:24:01.793Z,41.53
2024-01-18T19:29:04.736Z,39.38
2024-01-18T19:34:07.032Z,47.58
2024-01-18T19:39:09.983Z,43.13
2024-01-18T19:44:12.369Z,43.63
2024-01-18T19:49:14.528Z,52.90
2024-01-18T19:54:16.689Z,51.42
2024-01-18T19:59:19.698Z,45.05
2024-01-18T20:04:21.914Z,43.42
2024-01-18T20:09:24.093Z,56.73
2024-01-18T20:14:26.827Z,51.58
2024-01-18T20:19:29.056Z,45.67
2024-01-18T20:24:34.983Z,44.15
2024-01-18T20:29:38.242Z,43.38
2024-01-18T20:34:40.755Z,61.43
2024-01-18T20:39:43.991Z,47.65
2024-01-18T20:44:46.249Z,47.47
2024-01-18T20:49:48.413Z,39.83
2024-01-18T20:54:51.114Z,41.78
2024-01-18T20:59:53.376Z,32.13
2024-01-18T21:04:55.684Z,47.40
2024-01-18T21:09:57.942Z,44.30
2024-01-18T21:15:00.077Z,42.83
2024-01-18T21:20:02.869Z,43.75
2024-01-18T21:25:05.251Z,37.77
2024-01-18T21:30:08.223Z,44.55
2024-01-18T21:35:10.626Z,35.72
2024-01-18T21:40:13.001Z,38.65
2024-01-18T21:45:15.728Z,33.58
2024-01-18T21:50:18.369Z,33.40
2024-01-18T21:55:20.713Z,34.42
2024-01-18T22:00:23.757Z,29.45
2024-01-18T22:05:26.836Z,34.70
2024-01-18T22:10:29.120Z,39.35
2024-01-18T22:15:31.278Z,39.20
2024-01-18T22:20:33.729Z,36.15
2024-01-18T22:25:35.971Z,32.22
2024-01-18T22:30:38.136Z,38.08
2024-01-18T22:35:40.462Z,33.13
2024-01-18T22:40:42.700Z,29.33
2024-01-18T22:45:47.447Z,32.55
2024-01-18T22:50:51.800Z,31.27
2024-01-18T22:55:54.003Z,28.42
2024-01-18T23:00:56.210Z,29.70
2024-01-18T23:05:58.523Z,23.57
2024-01-18T23:11:00.731Z,22.23
2024-01-18T23:16:03.977Z,22.45
2024-01-18T23:21:07.676Z,22.85
2024-01-18T23:26:09.966Z,23.58
2024-01-18T23:31:12.322Z,24.57
2024-01-18T23:36:14.455Z,24.10
2024-01-18T23:41:16.899Z,26.05
2024-01-18T23:46:19.038Z,24.40
2024-01-18T23:51:21.182Z,19.27
2024-01-18T23:56:23.382Z,26.83
